Sandisfield, Massachusetts
Current Conditions -  °F | °C
As of 7:53 PM on Thursday 18 Dec 2014 (Local Time) from KBAF Reporting Station
Overcast Overcast  
Wind Chill: 28°   Ceiling: 2600
Heat Index: 36°   Visibility: 10mi
Dew Point: 25°   Wind: 10mph
Humidity: 64%   Direction: 310°NW
Pressure: 29.9"   Gusts: NA
Location:  42.11°N, 73.14°W
Report Text: KBAF 190053Z 31009KT 10SM OVC026 02/M04 A2990 RMK AO2 SLP128 T00221039
Loading
Personal Weather Stations






























Interactive Weather Map New forecast layout! Learn more

10-Day Weather Forecast

Advertisements
Track Severe Weather on mobile